sensor_id;sensor_type;location;lat;lon;timestamp;P1;durP1;ratioP1;P2;durP2;ratioP2
49109;SDS011;34921;52.320;16.142;2023-05-29T00:02:10;9.80;;;5.33;;
49109;SDS011;34921;52.320;16.142;2023-05-29T00:04:38;10.98;;;5.55;;
49109;SDS011;34921;52.320;16.142;2023-05-29T00:07:07;14.43;;;5.40;;
49109;SDS011;34921;52.320;16.142;2023-05-29T00:09:35;10.65;;;5.12;;
49109;SDS011;34921;52.320;16.142;2023-05-29T00:12:03;10.13;;;5.50;;
49109;SDS011;34921;52.320;16.142;2023-05-29T00:14:33;12.43;;;5.65;;
49109;SDS011;34921;52.320;16.142;2023-05-29T00:17:01;9.53;;;5.35;;
49109;SDS011;34921;52.320;16.142;2023-05-29T00:19:30;12.00;;;5.72;;
49109;SDS011;34921;52.320;16.142;2023-05-29T00:21:58;10.15;;;5.45;;
49109;SDS011;34921;52.320;16.142;2023-05-29T00:24:25;10.08;;;5.65;;
49109;SDS011;34921;52.320;16.142;2023-05-29T00:26:53;14.73;;;6.20;;
49109;SDS011;34921;52.320;16.142;2023-05-29T00:29:21;10.60;;;6.00;;
49109;SDS011;34921;52.320;16.142;2023-05-29T00:31:49;13.60;;;6.00;;
49109;SDS011;34921;52.320;16.142;2023-05-29T00:34:21;11.03;;;5.62;;
49109;SDS011;34921;52.320;16.142;2023-05-29T00:36:50;12.98;;;5.50;;
49109;SDS011;34921;52.320;16.142;2023-05-29T00:39:18;12.47;;;5.90;;
49109;SDS011;34921;52.320;16.142;2023-05-29T00:41:46;10.10;;;5.92;;
49109;SDS011;34921;52.320;16.142;2023-05-29T00:44:18;10.48;;;5.50;;
49109;SDS011;34921;52.320;16.142;2023-05-29T00:46:47;10.50;;;5.50;;
49109;SDS011;34921;52.320;16.142;2023-05-29T00:49:16;12.05;;;5.97;;
49109;SDS011;34921;52.320;16.142;2023-05-29T00:51:45;11.35;;;5.87;;
49109;SDS011;34921;52.320;16.142;2023-05-29T00:54:14;13.08;;;5.80;;
49109;SDS011;34921;52.320;16.142;2023-05-29T00:56:48;19.45;;;6.25;;
49109;SDS011;34921;52.320;16.142;2023-05-29T00:59:16;28.67;;;6.30;;
49109;SDS011;34921;52.320;16.142;2023-05-29T01:01:45;19.30;;;6.47;;
49109;SDS011;34921;52.320;16.142;2023-05-29T01:04:13;16.50;;;6.28;;
49109;SDS011;34921;52.320;16.142;2023-05-29T01:06:43;14.43;;;6.30;;
49109;SDS011;34921;52.320;16.142;2023-05-29T01:09:11;13.55;;;5.92;;
49109;SDS011;34921;52.320;16.142;2023-05-29T01:11:42;17.45;;;5.92;;
49109;SDS011;34921;52.320;16.142;2023-05-29T01:14:14;11.60;;;5.80;;
49109;SDS011;34921;52.320;16.142;2023-05-29T01:17:00;16.77;;;5.87;;
49109;SDS011;34921;52.320;16.142;2023-05-29T01:19:37;12.18;;;6.03;;
49109;SDS011;34921;52.320;16.142;2023-05-29T01:25:21;14.10;;;6.17;;
49109;SDS011;34921;52.320;16.142;2023-05-29T01:27:51;12.90;;;6.10;;
49109;SDS011;34921;52.320;16.142;2023-05-29T01:30:20;15.65;;;5.92;;
49109;SDS011;34921;52.320;16.142;2023-05-29T01:32:49;13.00;;;5.87;;
49109;SDS011;34921;52.320;16.142;2023-05-29T01:35:17;10.82;;;5.58;;
49109;SDS011;34921;52.320;16.142;2023-05-29T01:37:45;13.75;;;6.05;;
49109;SDS011;34921;52.320;16.142;2023-05-29T01:40:13;10.50;;;5.70;;
49109;SDS011;34921;52.320;16.142;2023-05-29T01:42:41;9.73;;;5.25;;
49109;SDS011;34921;52.320;16.142;2023-05-29T01:45:10;8.95;;;5.22;;
49109;SDS011;34921;52.320;16.142;2023-05-29T01:47:38;11.85;;;5.67;;
49109;SDS011;34921;52.320;16.142;2023-05-29T01:50:07;8.70;;;5.45;;
49109;SDS011;34921;52.320;16.142;2023-05-29T01:52:36;8.88;;;5.30;;
49109;SDS011;34921;52.320;16.142;2023-05-29T01:55:04;10.32;;;5.80;;
49109;SDS011;34921;52.320;16.142;2023-05-29T01:57:32;8.78;;;5.30;;
49109;SDS011;34921;52.320;16.142;2023-05-29T02:00:01;13.20;;;5.60;;
49109;SDS011;34921;52.320;16.142;2023-05-29T02:02:32;10.03;;;5.25;;
49109;SDS011;34921;52.320;16.142;2023-05-29T02:05:07;9.80;;;5.20;;
49109;SDS011;34921;52.320;16.142;2023-05-29T02:07:35;10.93;;;5.20;;
49109;SDS011;34921;52.320;16.142;2023-05-29T02:10:06;8.73;;;5.25;;
49109;SDS011;34921;52.320;16.142;2023-05-29T02:12:34;11.68;;;5.17;;
49109;SDS011;34921;52.320;16.142;2023-05-29T02:15:02;9.78;;;5.40;;
49109;SDS011;34921;52.320;16.142;2023-05-29T02:17:31;11.28;;;5.50;;
49109;SDS011;34921;52.320;16.142;2023-05-29T02:19:58;11.85;;;5.90;;
49109;SDS011;34921;52.320;16.142;2023-05-29T02:22:26;11.20;;;5.30;;
49109;SDS011;34921;52.320;16.142;2023-05-29T02:24:55;7.62;;;4.65;;
49109;SDS011;34921;52.320;16.142;2023-05-29T02:27:22;9.78;;;4.90;;
49109;SDS011;34921;52.320;16.142;2023-05-29T02:29:50;9.03;;;5.22;;
49109;SDS011;34921;52.320;16.142;2023-05-29T02:32:18;8.63;;;4.70;;
49109;SDS011;34921;52.320;16.142;2023-05-29T02:34:46;7.65;;;4.92;;
49109;SDS011;34921;52.320;16.142;2023-05-29T02:37:14;10.70;;;5.17;;
49109;SDS011;34921;52.320;16.142;2023-05-29T02:39:42;9.28;;;5.03;;
49109;SDS011;34921;52.320;16.142;2023-05-29T02:42:10;10.70;;;5.37;;
49109;SDS011;34921;52.320;16.142;2023-05-29T02:44:38;9.53;;;4.87;;
49109;SDS011;34921;52.320;16.142;2023-05-29T02:47:06;11.43;;;4.92;;
49109;SDS011;34921;52.320;16.142;2023-05-29T02:49:34;10.38;;;4.80;;
49109;SDS011;34921;52.320;16.142;2023-05-29T02:52:02;8.18;;;4.92;;
49109;SDS011;34921;52.320;16.142;2023-05-29T02:54:30;9.65;;;5.08;;
49109;SDS011;34921;52.320;16.142;2023-05-29T02:56:58;11.43;;;5.00;;
49109;SDS011;34921;52.320;16.142;2023-05-29T02:59:26;10.18;;;5.42;;
49109;SDS011;34921;52.320;16.142;2023-05-29T03:01:54;8.80;;;4.70;;
49109;SDS011;34921;52.320;16.142;2023-05-29T03:04:22;12.47;;;5.80;;
49109;SDS011;34921;52.320;16.142;2023-05-29T03:06:50;13.13;;;5.75;;
49109;SDS011;34921;52.320;16.142;2023-05-29T03:09:20;10.82;;;5.78;;
49109;SDS011;34921;52.320;16.142;2023-05-29T03:11:48;10.88;;;5.58;;
49109;SDS011;34921;52.320;16.142;2023-05-29T03:14:17;9.90;;;4.95;;
49109;SDS011;34921;52.320;16.142;2023-05-29T03:16:46;10.32;;;5.22;;
49109;SDS011;34921;52.320;16.142;2023-05-29T03:19:14;8.88;;;4.75;;
49109;SDS011;34921;52.320;16.142;2023-05-29T03:21:42;9.45;;;4.67;;
49109;SDS011;34921;52.320;16.142;2023-05-29T03:24:10;9.73;;;4.70;;
49109;SDS011;34921;52.320;16.142;2023-05-29T03:26:38;10.43;;;5.47;;
49109;SDS011;34921;52.320;16.142;2023-05-29T03:29:07;10.58;;;5.72;;
49109;SDS011;34921;52.320;16.142;2023-05-29T03:31:34;12.88;;;5.33;;
49109;SDS011;34921;52.320;16.142;2023-05-29T03:34:03;10.53;;;5.10;;
49109;SDS011;34921;52.320;16.142;2023-05-29T03:36:31;13.03;;;5.10;;
49109;SDS011;34921;52.320;16.142;2023-05-29T03:38:59;9.88;;;4.70;;
49109;SDS011;34921;52.320;16.142;2023-05-29T03:41:27;12.00;;;5.22;;
49109;SDS011;34921;52.320;16.142;2023-05-29T03:43:55;9.63;;;4.75;;
49109;SDS011;34921;52.320;16.142;2023-05-29T03:46:23;9.93;;;4.53;;
49109;SDS011;34921;52.320;16.142;2023-05-29T03:48:51;12.98;;;5.28;;
49109;SDS011;34921;52.320;16.142;2023-05-29T03:51:19;10.65;;;5.12;;
49109;SDS011;34921;52.320;16.142;2023-05-29T03:53:47;16.10;;;5.03;;
49109;SDS011;34921;52.320;16.142;2023-05-29T03:56:15;14.20;;;5.47;;
49109;SDS011;34921;52.320;16.142;2023-05-29T03:58:43;12.25;;;5.33;;
49109;SDS011;34921;52.320;16.142;2023-05-29T04:01:11;9.75;;;4.85;;
49109;SDS011;34921;52.320;16.142;2023-05-29T04:03:39;12.98;;;5.80;;
49109;SDS011;34921;52.320;16.142;2023-05-29T04:06:07;17.60;;;5.70;;
49109;SDS011;34921;52.320;16.142;2023-05-29T04:08:35;16.55;;;5.55;;
49109;SDS011;34921;52.320;16.142;2023-05-29T04:11:04;16.27;;;5.47;;
49109;SDS011;34921;52.320;16.142;2023-05-29T04:13:32;14.75;;;5.95;;
49109;SDS011;34921;52.320;16.142;2023-05-29T04:16:00;13.53;;;5.25;;
49109;SDS011;34921;52.320;16.142;2023-05-29T04:18:28;14.03;;;5.42;;
49109;SDS011;34921;52.320;16.142;2023-05-29T04:20:56;13.58;;;5.58;;
49109;SDS011;34921;52.320;16.142;2023-05-29T04:23:24;10.05;;;5.12;;
49109;SDS011;34921;52.320;16.142;2023-05-29T04:25:52;10.15;;;5.25;;
49109;SDS011;34921;52.320;16.142;2023-05-29T04:28:20;10.80;;;5.30;;
49109;SDS011;34921;52.320;16.142;2023-05-29T04:30:49;17.32;;;5.60;;
49109;SDS011;34921;52.320;16.142;2023-05-29T04:33:17;17.37;;;5.53;;
49109;SDS011;34921;52.320;16.142;2023-05-29T04:35:48;15.25;;;5.53;;
49109;SDS011;34921;52.320;16.142;2023-05-29T04:38:17;15.00;;;5.20;;
49109;SDS011;34921;52.320;16.142;2023-05-29T04:40:46;11.40;;;4.87;;
49109;SDS011;34921;52.320;16.142;2023-05-29T04:43:15;16.00;;;5.10;;
49109;SDS011;34921;52.320;16.142;2023-05-29T04:45:44;12.00;;;5.08;;
49109;SDS011;34921;52.320;16.142;2023-05-29T04:48:12;10.70;;;4.95;;
49109;SDS011;34921;52.320;16.142;2023-05-29T04:50:40;11.75;;;5.15;;
49109;SDS011;34921;52.320;16.142;2023-05-29T04:53:09;16.23;;;6.40;;
49109;SDS011;34921;52.320;16.142;2023-05-29T04:55:38;15.55;;;6.83;;
49109;SDS011;34921;52.320;16.142;2023-05-29T04:58:06;19.70;;;9.03;;
49109;SDS011;34921;52.320;16.142;2023-05-29T05:00:35;17.48;;;9.08;;
49109;SDS011;34921;52.320;16.142;2023-05-29T05:03:03;19.27;;;8.53;;
49109;SDS011;34921;52.320;16.142;2023-05-29T05:05:32;15.55;;;7.45;;
49109;SDS011;34921;52.320;16.142;2023-05-29T05:08:00;16.20;;;7.05;;
49109;SDS011;34921;52.320;16.142;2023-05-29T05:10:29;15.08;;;6.30;;
49109;SDS011;34921;52.320;16.142;2023-05-29T05:12:57;15.95;;;6.20;;
49109;SDS011;34921;52.320;16.142;2023-05-29T05:15:25;17.25;;;6.53;;
49109;SDS011;34921;52.320;16.142;2023-05-29T05:17:54;13.03;;;5.35;;
49109;SDS011;34921;52.320;16.142;2023-05-29T05:20:22;10.40;;;4.30;;
49109;SDS011;34921;52.320;16.142;2023-05-29T05:22:50;10.63;;;4.85;;
49109;SDS011;34921;52.320;16.142;2023-05-29T05:25:19;8.43;;;4.30;;
49109;SDS011;34921;52.320;16.142;2023-05-29T05:27:47;8.00;;;3.50;;
49109;SDS011;34921;52.320;16.142;2023-05-29T05:30:15;11.57;;;3.98;;
49109;SDS011;34921;52.320;16.142;2023-05-29T05:32:43;12.80;;;4.30;;
49109;SDS011;34921;52.320;16.142;2023-05-29T05:35:11;11.43;;;3.90;;
49109;SDS011;34921;52.320;16.142;2023-05-29T05:37:41;12.47;;;4.10;;
49109;SDS011;34921;52.320;16.142;2023-05-29T05:40:08;11.68;;;3.77;;
49109;SDS011;34921;52.320;16.142;2023-05-29T05:42:37;10.98;;;4.05;;
49109;SDS011;34921;52.320;16.142;2023-05-29T05:45:05;14.63;;;4.15;;
49109;SDS011;34921;52.320;16.142;2023-05-29T05:47:34;13.20;;;3.98;;
49109;SDS011;34921;52.320;16.142;2023-05-29T05:50:02;10.88;;;4.42;;
49109;SDS011;34921;52.320;16.142;2023-05-29T05:52:30;11.30;;;3.70;;
49109;SDS011;34921;52.320;16.142;2023-05-29T05:55:00;9.55;;;4.08;;
49109;SDS011;34921;52.320;16.142;2023-05-29T05:57:28;10.63;;;4.28;;
49109;SDS011;34921;52.320;16.142;2023-05-29T05:59:56;9.33;;;3.80;;
49109;SDS011;34921;52.320;16.142;2023-05-29T06:02:24;14.18;;;4.40;;
49109;SDS011;34921;52.320;16.142;2023-05-29T06:04:52;11.75;;;3.90;;
49109;SDS011;34921;52.320;16.142;2023-05-29T06:07:20;10.53;;;3.92;;
49109;SDS011;34921;52.320;16.142;2023-05-29T06:09:48;8.68;;;3.70;;
49109;SDS011;34921;52.320;16.142;2023-05-29T06:12:16;10.10;;;3.83;;
49109;SDS011;34921;52.320;16.142;2023-05-29T06:14:44;9.98;;;4.15;;
49109;SDS011;34921;52.320;16.142;2023-05-29T06:17:12;8.35;;;4.15;;
49109;SDS011;34921;52.320;16.142;2023-05-29T06:19:40;8.53;;;4.25;;
49109;SDS011;34921;52.320;16.142;2023-05-29T06:22:08;10.98;;;4.30;;
49109;SDS011;34921;52.320;16.142;2023-05-29T06:24:36;8.85;;;4.37;;
49109;SDS011;34921;52.320;16.142;2023-05-29T06:27:04;11.88;;;4.67;;
49109;SDS011;34921;52.320;16.142;2023-05-29T06:29:33;8.00;;;4.20;;
49109;SDS011;34921;52.320;16.142;2023-05-29T06:32:01;11.40;;;4.45;;
49109;SDS011;34921;52.320;16.142;2023-05-29T06:34:29;8.63;;;3.92;;
49109;SDS011;34921;52.320;16.142;2023-05-29T06:36:57;11.05;;;4.30;;
49109;SDS011;34921;52.320;16.142;2023-05-29T06:39:25;11.88;;;4.28;;
49109;SDS011;34921;52.320;16.142;2023-05-29T06:41:53;11.45;;;4.60;;
49109;SDS011;34921;52.320;16.142;2023-05-29T06:44:22;7.15;;;3.90;;
49109;SDS011;34921;52.320;16.142;2023-05-29T06:46:50;8.90;;;3.83;;
49109;SDS011;34921;52.320;16.142;2023-05-29T06:49:18;10.23;;;3.60;;
49109;SDS011;34921;52.320;16.142;2023-05-29T06:51:46;9.35;;;3.58;;
49109;SDS011;34921;52.320;16.142;2023-05-29T06:54:14;9.05;;;3.12;;
49109;SDS011;34921;52.320;16.142;2023-05-29T06:56:42;7.37;;;3.42;;
49109;SDS011;34921;52.320;16.142;2023-05-29T06:59:10;8.45;;;3.17;;
49109;SDS011;34921;52.320;16.142;2023-05-29T07:01:37;7.85;;;3.08;;
49109;SDS011;34921;52.320;16.142;2023-05-29T07:04:05;8.43;;;3.47;;
49109;SDS011;34921;52.320;16.142;2023-05-29T07:06:34;9.28;;;2.80;;
49109;SDS011;34921;52.320;16.142;2023-05-29T07:09:03;8.05;;;2.83;;
49109;SDS011;34921;52.320;16.142;2023-05-29T07:11:31;7.40;;;3.08;;
49109;SDS011;34921;52.320;16.142;2023-05-29T07:13:59;7.35;;;2.62;;
49109;SDS011;34921;52.320;16.142;2023-05-29T07:16:27;9.90;;;3.00;;
49109;SDS011;34921;52.320;16.142;2023-05-29T07:18:55;7.22;;;2.75;;
49109;SDS011;34921;52.320;16.142;2023-05-29T07:21:23;7.10;;;2.77;;
49109;SDS011;34921;52.320;16.142;2023-05-29T07:23:50;10.23;;;3.00;;
49109;SDS011;34921;52.320;16.142;2023-05-29T07:26:19;9.93;;;3.17;;
49109;SDS011;34921;52.320;16.142;2023-05-29T07:28:49;6.30;;;2.85;;
49109;SDS011;34921;52.320;16.142;2023-05-29T07:31:17;7.45;;;2.52;;
49109;SDS011;34921;52.320;16.142;2023-05-29T07:33:45;12.13;;;2.80;;
49109;SDS011;34921;52.320;16.142;2023-05-29T07:36:14;5.17;;;2.50;;
49109;SDS011;34921;52.320;16.142;2023-05-29T07:38:44;9.15;;;3.00;;
49109;SDS011;34921;52.320;16.142;2023-05-29T07:41:12;6.67;;;2.40;;
49109;SDS011;34921;52.320;16.142;2023-05-29T07:43:43;7.42;;;3.10;;
49109;SDS011;34921;52.320;16.142;2023-05-29T07:46:13;8.53;;;2.92;;
49109;SDS011;34921;52.320;16.142;2023-05-29T07:48:41;5.72;;;2.47;;
49109;SDS011;34921;52.320;16.142;2023-05-29T07:51:10;8.15;;;2.83;;
49109;SDS011;34921;52.320;16.142;2023-05-29T07:53:38;7.10;;;2.67;;
49109;SDS011;34921;52.320;16.142;2023-05-29T07:56:06;7.50;;;2.72;;
49109;SDS011;34921;52.320;16.142;2023-05-29T07:58:34;9.35;;;2.87;;
49109;SDS011;34921;52.320;16.142;2023-05-29T08:01:02;6.53;;;2.40;;
49109;SDS011;34921;52.320;16.142;2023-05-29T08:03:30;8.18;;;2.55;;
49109;SDS011;34921;52.320;16.142;2023-05-29T08:05:58;6.62;;;2.72;;
49109;SDS011;34921;52.320;16.142;2023-05-29T08:08:26;7.22;;;2.90;;
49109;SDS011;34921;52.320;16.142;2023-05-29T08:10:54;7.20;;;2.85;;
49109;SDS011;34921;52.320;16.142;2023-05-29T08:13:22;7.50;;;2.80;;
49109;SDS011;34921;52.320;16.142;2023-05-29T08:15:50;6.37;;;2.58;;
49109;SDS011;34921;52.320;16.142;2023-05-29T08:18:18;4.53;;;2.33;;
49109;SDS011;34921;52.320;16.142;2023-05-29T08:20:46;5.97;;;2.40;;
49109;SDS011;34921;52.320;16.142;2023-05-29T08:23:14;6.45;;;2.85;;
49109;SDS011;34921;52.320;16.142;2023-05-29T08:25:43;8.30;;;2.98;;
49109;SDS011;34921;52.320;16.142;2023-05-29T08:28:11;6.50;;;2.70;;
49109;SDS011;34921;52.320;16.142;2023-05-29T08:30:39;6.15;;;2.50;;
49109;SDS011;34921;52.320;16.142;2023-05-29T08:33:07;5.47;;;2.52;;
49109;SDS011;34921;52.320;16.142;2023-05-29T08:35:35;6.22;;;2.72;;
49109;SDS011;34921;52.320;16.142;2023-05-29T08:38:03;8.55;;;2.50;;
49109;SDS011;34921;52.320;16.142;2023-05-29T08:40:31;5.22;;;2.60;;
49109;SDS011;34921;52.320;16.142;2023-05-29T08:43:01;6.20;;;2.50;;
49109;SDS011;34921;52.320;16.142;2023-05-29T08:45:32;4.33;;;2.58;;
49109;SDS011;34921;52.320;16.142;2023-05-29T08:48:02;6.33;;;2.50;;
49109;SDS011;34921;52.320;16.142;2023-05-29T08:50:30;4.03;;;2.17;;
49109;SDS011;34921;52.320;16.142;2023-05-29T08:52:58;6.87;;;2.85;;
49109;SDS011;34921;52.320;16.142;2023-05-29T08:55:26;7.45;;;2.60;;
49109;SDS011;34921;52.320;16.142;2023-05-29T08:57:55;6.05;;;2.77;;
49109;SDS011;34921;52.320;16.142;2023-05-29T09:00:23;7.72;;;2.98;;
49109;SDS011;34921;52.320;16.142;2023-05-29T09:02:55;5.12;;;2.40;;
49109;SDS011;34921;52.320;16.142;2023-05-29T09:05:23;7.75;;;3.20;;
49109;SDS011;34921;52.320;16.142;2023-05-29T09:07:55;8.83;;;2.80;;
49109;SDS011;34921;52.320;16.142;2023-05-29T09:10:24;5.80;;;2.55;;
49109;SDS011;34921;52.320;16.142;2023-05-29T09:12:55;4.90;;;2.40;;
49109;SDS011;34921;52.320;16.142;2023-05-29T09:15:24;6.25;;;2.80;;
49109;SDS011;34921;52.320;16.142;2023-05-29T09:17:52;5.62;;;2.52;;
49109;SDS011;34921;52.320;16.142;2023-05-29T09:20:22;6.20;;;2.52;;
49109;SDS011;34921;52.320;16.142;2023-05-29T09:22:54;7.70;;;2.70;;
49109;SDS011;34921;52.320;16.142;2023-05-29T09:25:27;6.97;;;2.70;;
49109;SDS011;34921;52.320;16.142;2023-05-29T09:28:00;6.72;;;2.80;;
49109;SDS011;34921;52.320;16.142;2023-05-29T09:30:40;5.00;;;2.50;;
49109;SDS011;34921;52.320;16.142;2023-05-29T09:33:11;6.50;;;2.98;;
49109;SDS011;34921;52.320;16.142;2023-05-29T09:35:43;6.03;;;2.80;;
49109;SDS011;34921;52.320;16.142;2023-05-29T09:38:13;9.40;;;2.67;;
49109;SDS011;34921;52.320;16.142;2023-05-29T09:40:43;8.23;;;2.67;;
49109;SDS011;34921;52.320;16.142;2023-05-29T09:43:14;6.00;;;2.47;;
49109;SDS011;34921;52.320;16.142;2023-05-29T09:45:45;10.00;;;2.58;;
49109;SDS011;34921;52.320;16.142;2023-05-29T09:48:14;5.92;;;2.62;;
49109;SDS011;34921;52.320;16.142;2023-05-29T09:50:44;6.85;;;3.12;;
49109;SDS011;34921;52.320;16.142;2023-05-29T09:53:18;6.25;;;2.70;;
49109;SDS011;34921;52.320;16.142;2023-05-29T09:55:48;5.95;;;2.52;;
49109;SDS011;34921;52.320;16.142;2023-05-29T09:58:17;7.60;;;2.60;;
49109;SDS011;34921;52.320;16.142;2023-05-29T10:00:46;6.60;;;2.50;;
49109;SDS011;34921;52.320;16.142;2023-05-29T10:03:15;5.75;;;2.72;;
49109;SDS011;34921;52.320;16.142;2023-05-29T10:05:49;6.85;;;2.67;;
49109;SDS011;34921;52.320;16.142;2023-05-29T10:08:18;4.12;;;2.35;;
49109;SDS011;34921;52.320;16.142;2023-05-29T10:11:08;5.70;;;2.15;;
49109;SDS011;34921;52.320;16.142;2023-05-29T10:13:38;6.45;;;2.83;;
49109;SDS011;34921;52.320;16.142;2023-05-29T10:16:07;5.90;;;2.37;;
49109;SDS011;34921;52.320;16.142;2023-05-29T10:18:39;5.27;;;2.30;;
49109;SDS011;34921;52.320;16.142;2023-05-29T10:21:11;4.78;;;2.60;;
49109;SDS011;34921;52.320;16.142;2023-05-29T10:23:40;5.45;;;2.50;;
49109;SDS011;34921;52.320;16.142;2023-05-29T10:28:50;6.22;;;2.50;;
49109;SDS011;34921;52.320;16.142;2023-05-29T10:31:26;5.42;;;2.10;;
49109;SDS011;34921;52.320;16.142;2023-05-29T10:37:08;6.42;;;2.65;;
49109;SDS011;34921;52.320;16.142;2023-05-29T10:39:41;5.80;;;2.35;;
49109;SDS011;34921;52.320;16.142;2023-05-29T10:45:09;5.15;;;2.58;;
49109;SDS011;34921;52.320;16.142;2023-05-29T10:47:39;5.90;;;2.30;;
49109;SDS011;34921;52.320;16.142;2023-05-29T10:50:07;7.65;;;2.60;;
49109;SDS011;34921;52.320;16.142;2023-05-29T10:52:37;5.60;;;2.45;;
49109;SDS011;34921;52.320;16.142;2023-05-29T10:55:13;8.10;;;2.87;;
49109;SDS011;34921;52.320;16.142;2023-05-29T10:57:46;7.03;;;2.60;;
49109;SDS011;34921;52.320;16.142;2023-05-29T11:00:16;4.15;;;2.20;;
49109;SDS011;34921;52.320;16.142;2023-05-29T11:02:45;4.37;;;2.35;;
49109;SDS011;34921;52.320;16.142;2023-05-29T11:07:51;4.97;;;2.25;;
49109;SDS011;34921;52.320;16.142;2023-05-29T11:13:33;9.53;;;2.30;;
49109;SDS011;34921;52.320;16.142;2023-05-29T11:18:52;5.03;;;2.58;;
49109;SDS011;34921;52.320;16.142;2023-05-29T11:26:52;4.25;;;2.40;;
49109;SDS011;34921;52.320;16.142;2023-05-29T11:29:25;5.50;;;2.25;;
49109;SDS011;34921;52.320;16.142;2023-05-29T11:31:55;5.25;;;2.65;;
49109;SDS011;34921;52.320;16.142;2023-05-29T11:34:26;6.67;;;2.80;;
49109;SDS011;34921;52.320;16.142;2023-05-29T11:36:59;5.53;;;2.72;;
49109;SDS011;34921;52.320;16.142;2023-05-29T11:39:28;7.03;;;2.60;;
49109;SDS011;34921;52.320;16.142;2023-05-29T11:41:56;7.03;;;2.92;;
49109;SDS011;34921;52.320;16.142;2023-05-29T11:44:24;5.08;;;2.37;;
49109;SDS011;34921;52.320;16.142;2023-05-29T11:47:06;9.33;;;2.70;;
49109;SDS011;34921;52.320;16.142;2023-05-29T11:49:35;6.70;;;2.42;;
49109;SDS011;34921;52.320;16.142;2023-05-29T11:52:07;4.37;;;2.37;;
49109;SDS011;34921;52.320;16.142;2023-05-29T11:54:39;4.70;;;2.52;;
49109;SDS011;34921;52.320;16.142;2023-05-29T11:57:17;5.25;;;2.55;;
49109;SDS011;34921;52.320;16.142;2023-05-29T11:59:49;7.83;;;2.85;;
49109;SDS011;34921;52.320;16.142;2023-05-29T12:05:01;6.53;;;2.33;;
49109;SDS011;34921;52.320;16.142;2023-05-29T12:07:30;8.45;;;2.50;;
49109;SDS011;34921;52.320;16.142;2023-05-29T12:10:08;4.78;;;2.20;;
49109;SDS011;34921;52.320;16.142;2023-05-29T12:12:37;3.92;;;2.27;;
49109;SDS011;34921;52.320;16.142;2023-05-29T12:15:07;5.83;;;2.30;;
49109;SDS011;34921;52.320;16.142;2023-05-29T12:17:35;4.58;;;2.30;;
49109;SDS011;34921;52.320;16.142;2023-05-29T12:20:04;3.77;;;2.35;;
49109;SDS011;34921;52.320;16.142;2023-05-29T12:22:36;4.47;;;2.10;;
49109;SDS011;34921;52.320;16.142;2023-05-29T12:25:05;4.28;;;2.60;;
49109;SDS011;34921;52.320;16.142;2023-05-29T12:27:34;5.60;;;2.80;;
49109;SDS011;34921;52.320;16.142;2023-05-29T12:32:51;5.60;;;2.22;;
49109;SDS011;34921;52.320;16.142;2023-05-29T12:35:20;6.62;;;2.67;;
49109;SDS011;34921;52.320;16.142;2023-05-29T12:40:28;5.50;;;2.37;;
49109;SDS011;34921;52.320;16.142;2023-05-29T12:42:58;5.37;;;2.65;;
49109;SDS011;34921;52.320;16.142;2023-05-29T12:45:27;4.58;;;2.10;;
49109;SDS011;34921;52.320;16.142;2023-05-29T12:48:00;4.80;;;2.25;;
49109;SDS011;34921;52.320;16.142;2023-05-29T12:50:32;3.80;;;2.05;;
49109;SDS011;34921;52.320;16.142;2023-05-29T12:55:40;4.78;;;2.20;;
49109;SDS011;34921;52.320;16.142;2023-05-29T12:58:14;3.02;;;2.00;;
49109;SDS011;34921;52.320;16.142;2023-05-29T13:00:46;6.28;;;2.22;;
49109;SDS011;34921;52.320;16.142;2023-05-29T13:03:14;4.12;;;2.00;;
49109;SDS011;34921;52.320;16.142;2023-05-29T13:05:43;5.20;;;2.55;;
49109;SDS011;34921;52.320;16.142;2023-05-29T13:08:10;4.58;;;2.30;;
49109;SDS011;34921;52.320;16.142;2023-05-29T13:10:38;3.75;;;2.10;;
49109;SDS011;34921;52.320;16.142;2023-05-29T13:13:06;5.58;;;2.30;;
49109;SDS011;34921;52.320;16.142;2023-05-29T13:15:34;5.28;;;2.40;;
49109;SDS011;34921;52.320;16.142;2023-05-29T13:18:02;4.00;;;2.08;;
49109;SDS011;34921;52.320;16.142;2023-05-29T13:20:30;4.47;;;2.30;;
49109;SDS011;34921;52.320;16.142;2023-05-29T13:22:59;4.55;;;2.45;;
49109;SDS011;34921;52.320;16.142;2023-05-29T13:25:27;3.83;;;2.30;;
49109;SDS011;34921;52.320;16.142;2023-05-29T13:27:55;4.05;;;2.50;;
49109;SDS011;34921;52.320;16.142;2023-05-29T13:30:23;5.95;;;2.42;;
49109;SDS011;34921;52.320;16.142;2023-05-29T13:32:52;7.05;;;2.20;;
49109;SDS011;34921;52.320;16.142;2023-05-29T13:35:20;4.20;;;2.05;;
49109;SDS011;34921;52.320;16.142;2023-05-29T13:37:48;3.85;;;2.15;;
49109;SDS011;34921;52.320;16.142;2023-05-29T13:40:16;4.00;;;2.05;;
49109;SDS011;34921;52.320;16.142;2023-05-29T13:42:44;6.67;;;2.02;;
49109;SDS011;34921;52.320;16.142;2023-05-29T13:45:12;4.42;;;2.10;;
49109;SDS011;34921;52.320;16.142;2023-05-29T13:47:41;4.03;;;2.20;;
49109;SDS011;34921;52.320;16.142;2023-05-29T13:50:09;5.40;;;2.12;;
49109;SDS011;34921;52.320;16.142;2023-05-29T13:52:38;3.70;;;2.02;;
49109;SDS011;34921;52.320;16.142;2023-05-29T13:55:06;4.72;;;2.17;;
49109;SDS011;34921;52.320;16.142;2023-05-29T13:57:36;5.83;;;2.50;;
49109;SDS011;34921;52.320;16.142;2023-05-29T14:00:04;4.00;;;2.00;;
49109;SDS011;34921;52.320;16.142;2023-05-29T14:02:33;5.58;;;2.12;;
49109;SDS011;34921;52.320;16.142;2023-05-29T14:05:01;9.95;;;2.55;;
49109;SDS011;34921;52.320;16.142;2023-05-29T14:07:29;7.90;;;1.90;;
49109;SDS011;34921;52.320;16.142;2023-05-29T14:09:57;5.15;;;2.25;;
49109;SDS011;34921;52.320;16.142;2023-05-29T14:12:25;3.95;;;2.20;;
49109;SDS011;34921;52.320;16.142;2023-05-29T14:14:53;3.87;;;2.10;;
49109;SDS011;34921;52.320;16.142;2023-05-29T14:17:21;6.30;;;2.20;;
49109;SDS011;34921;52.320;16.142;2023-05-29T14:19:49;5.10;;;2.20;;
49109;SDS011;34921;52.320;16.142;2023-05-29T14:22:17;9.83;;;6.83;;
49109;SDS011;34921;52.320;16.142;2023-05-29T14:24:44;5.03;;;2.50;;
49109;SDS011;34921;52.320;16.142;2023-05-29T14:27:12;5.90;;;2.42;;
49109;SDS011;34921;52.320;16.142;2023-05-29T14:29:40;3.95;;;1.90;;
49109;SDS011;34921;52.320;16.142;2023-05-29T14:32:08;5.53;;;2.27;;
49109;SDS011;34921;52.320;16.142;2023-05-29T14:34:36;4.12;;;2.08;;
49109;SDS011;34921;52.320;16.142;2023-05-29T14:37:04;4.50;;;2.10;;
49109;SDS011;34921;52.320;16.142;2023-05-29T14:39:32;3.12;;;2.00;;
49109;SDS011;34921;52.320;16.142;2023-05-29T14:42:00;9.88;;;2.45;;
49109;SDS011;34921;52.320;16.142;2023-05-29T14:44:28;5.45;;;2.27;;
49109;SDS011;34921;52.320;16.142;2023-05-29T14:46:56;7.70;;;2.17;;
49109;SDS011;34921;52.320;16.142;2023-05-29T14:49:25;7.05;;;3.20;;
49109;SDS011;34921;52.320;16.142;2023-05-29T14:51:55;5.58;;;2.08;;
49109;SDS011;34921;52.320;16.142;2023-05-29T14:54:24;3.50;;;1.80;;
49109;SDS011;34921;52.320;16.142;2023-05-29T14:56:52;5.15;;;1.75;;
49109;SDS011;34921;52.320;16.142;2023-05-29T14:59:20;5.00;;;2.02;;
49109;SDS011;34921;52.320;16.142;2023-05-29T15:01:49;7.08;;;4.33;;
49109;SDS011;34921;52.320;16.142;2023-05-29T15:04:17;4.67;;;2.10;;
49109;SDS011;34921;52.320;16.142;2023-05-29T15:06:45;4.47;;;2.00;;
49109;SDS011;34921;52.320;16.142;2023-05-29T15:09:13;5.67;;;1.92;;
49109;SDS011;34921;52.320;16.142;2023-05-29T15:11:41;7.15;;;2.55;;
49109;SDS011;34921;52.320;16.142;2023-05-29T15:14:10;4.70;;;2.00;;
49109;SDS011;34921;52.320;16.142;2023-05-29T15:16:38;5.50;;;2.40;;
49109;SDS011;34921;52.320;16.142;2023-05-29T15:19:06;10.13;;;2.70;;